createdAt,value
2018-07-20T00:00:06.629Z,18.97
2018-07-20T00:02:36.094Z,18.94
2018-07-20T00:05:06.739Z,18.89
2018-07-20T00:07:36.206Z,18.80
2018-07-20T00:10:05.703Z,18.77
2018-07-20T00:12:35.091Z,18.75
2018-07-20T00:15:04.847Z,18.69
2018-07-20T00:17:34.401Z,18.65
2018-07-20T00:20:03.935Z,18.65
2018-07-20T00:22:33.460Z,18.62
2018-07-20T00:25:02.972Z,18.60
2018-07-20T00:27:32.394Z,18.58
2018-07-20T00:30:01.864Z,18.54
2018-07-20T00:32:31.345Z,18.52
2018-07-20T00:35:00.783Z,18.49
2018-07-20T00:37:30.225Z,18.47
2018-07-20T00:39:59.716Z,18.46
2018-07-20T00:42:29.141Z,18.49
2018-07-20T00:44:58.639Z,18.46
2018-07-20T00:47:28.133Z,18.41
2018-07-20T00:49:57.598Z,18.40
2018-07-20T00:52:27.248Z,18.34
2018-07-20T00:54:56.715Z,18.26
2018-07-20T00:57:26.136Z,18.19
2018-07-20T00:59:55.641Z,18.17
2018-07-20T01:02:25.093Z,18.11
2018-07-20T01:04:54.560Z,18.03
2018-07-20T01:07:24.039Z,18.00
2018-07-20T01:09:53.485Z,17.97
2018-07-20T01:12:22.884Z,17.96
2018-07-20T01:14:52.420Z,17.94
2018-07-20T01:17:21.936Z,17.96
2018-07-20T01:19:51.530Z,17.90
2018-07-20T01:22:21.015Z,17.86
2018-07-20T01:24:50.438Z,17.81
2018-07-20T01:27:19.899Z,17.68
2018-07-20T01:29:49.341Z,17.68
2018-07-20T01:32:18.800Z,17.68
2018-07-20T01:34:48.257Z,17.68
2018-07-20T01:37:17.705Z,17.66
2018-07-20T01:39:47.150Z,17.63
2018-07-20T01:42:16.591Z,17.65
2018-07-20T01:44:46.072Z,17.59
2018-07-20T01:47:15.540Z,17.56
2018-07-20T01:49:45.076Z,17.53
2018-07-20T01:52:14.553Z,17.49
2018-07-20T01:54:44.019Z,17.45
2018-07-20T01:57:13.540Z,17.42
2018-07-20T01:59:43.026Z,17.37
2018-07-20T02:02:12.451Z,17.29
2018-07-20T02:04:41.963Z,17.26
2018-07-20T02:07:11.410Z,17.26
2018-07-20T02:09:40.868Z,17.26
2018-07-20T02:12:10.333Z,17.23
2018-07-20T02:14:39.799Z,17.19
2018-07-20T02:17:09.355Z,17.08
2018-07-20T02:19:38.725Z,17.06
2018-07-20T02:22:08.177Z,17.06
2018-07-20T02:24:37.690Z,17.04
2018-07-20T02:27:07.160Z,17.05
2018-07-20T02:29:36.650Z,17.05
2018-07-20T02:32:06.156Z,17.02
2018-07-20T02:34:35.594Z,17.00
2018-07-20T02:37:05.112Z,16.91
2018-07-20T02:39:34.525Z,16.87
2018-07-20T02:42:03.997Z,16.78
2018-07-20T02:44:33.448Z,16.75
2018-07-20T02:47:02.916Z,16.70
2018-07-20T02:49:32.353Z,16.68
2018-07-20T02:52:01.798Z,16.68
2018-07-20T02:54:31.232Z,16.68
2018-07-20T02:57:00.597Z,16.70
2018-07-20T02:59:29.980Z,16.72
2018-07-20T03:01:59.427Z,16.75
2018-07-20T03:04:28.844Z,16.83
2018-07-20T03:06:58.270Z,16.85
2018-07-20T03:09:27.695Z,16.87
2018-07-20T03:11:57.194Z,16.88
2018-07-20T03:14:26.739Z,16.88
2018-07-20T03:16:56.207Z,16.84
2018-07-20T03:19:25.672Z,16.84
2018-07-20T03:21:55.050Z,16.82
2018-07-20T03:24:24.474Z,16.79
2018-07-20T03:26:53.916Z,16.81
2018-07-20T03:29:23.425Z,16.79
2018-07-20T03:31:52.866Z,16.83
2018-07-20T03:34:22.259Z,16.83
2018-07-20T03:36:51.722Z,16.83
2018-07-20T03:39:21.114Z,16.82
2018-07-20T03:41:50.568Z,16.80
2018-07-20T03:44:20.048Z,16.78
2018-07-20T03:46:49.483Z,16.75
2018-07-20T03:49:18.892Z,16.71
2018-07-20T03:51:48.341Z,16.72
2018-07-20T03:54:17.796Z,16.67
2018-07-20T03:56:47.241Z,16.65
2018-07-20T03:59:16.776Z,16.68
2018-07-20T04:01:46.174Z,16.64
2018-07-20T04:04:15.602Z,16.65
2018-07-20T04:06:45.043Z,16.63
2018-07-20T04:09:14.494Z,16.56
2018-07-20T04:11:43.925Z,16.56
2018-07-20T04:14:13.374Z,16.60
2018-07-20T04:16:42.836Z,16.60
2018-07-20T04:19:12.289Z,16.58
2018-07-20T04:21:41.748Z,16.58
2018-07-20T04:24:11.203Z,16.57
2018-07-20T04:26:40.682Z,16.55
2018-07-20T04:29:10.152Z,16.49
2018-07-20T04:31:39.561Z,16.45
2018-07-20T04:34:08.999Z,16.41
2018-07-20T04:36:38.414Z,16.36
2018-07-20T04:39:12.155Z,16.28
2018-07-20T04:41:42.177Z,16.26
2018-07-20T04:44:11.672Z,16.19
2018-07-20T04:46:41.170Z,16.19
2018-07-20T04:49:10.645Z,16.13
2018-07-20T04:51:40.097Z,16.03
2018-07-20T04:54:09.569Z,15.98
2018-07-20T04:56:39.008Z,15.96
2018-07-20T04:59:08.519Z,15.95
2018-07-20T05:01:37.960Z,15.89
2018-07-20T05:04:07.432Z,15.92
2018-07-20T05:06:36.839Z,15.93
2018-07-20T05:09:09.773Z,15.99
2018-07-20T05:11:39.549Z,16.03
2018-07-20T05:14:09.320Z,16.08
2018-07-20T05:16:38.806Z,16.08
2018-07-20T05:19:08.225Z,16.09
2018-07-20T05:21:37.870Z,16.14
2018-07-20T05:24:07.493Z,16.16
2018-07-20T05:26:36.874Z,16.18
2018-07-20T05:29:06.587Z,16.23
2018-07-20T05:31:36.076Z,16.26
2018-07-20T05:34:05.556Z,16.28
2018-07-20T05:36:34.700Z,16.36
2018-07-20T05:39:05.980Z,16.44
2018-07-20T05:41:35.434Z,16.51
2018-07-20T05:44:04.935Z,16.56
2018-07-20T05:46:34.384Z,16.61
2018-07-20T05:49:03.872Z,16.67
2018-07-20T05:51:33.380Z,16.72
2018-07-20T05:54:03.921Z,16.78
2018-07-20T05:56:33.441Z,16.86
2018-07-20T05:59:02.883Z,16.97
2018-07-20T06:01:32.302Z,17.03
2018-07-20T06:04:01.800Z,17.08
2018-07-20T06:06:30.951Z,17.16
2018-07-20T06:09:00.364Z,17.24
2018-07-20T06:11:29.805Z,17.31
2018-07-20T06:13:59.276Z,17.37
2018-07-20T06:16:28.685Z,17.42
2018-07-20T06:18:58.138Z,17.50
2018-07-20T06:21:27.541Z,17.55
2018-07-20T06:23:57.039Z,17.63
2018-07-20T06:26:26.408Z,17.70
2018-07-20T06:28:55.856Z,17.76
2018-07-20T06:31:25.345Z,17.86
2018-07-20T06:33:55.745Z,17.91
2018-07-20T06:36:25.237Z,18.00
2018-07-20T06:38:54.656Z,18.07
2018-07-20T06:41:24.119Z,18.16
2018-07-20T06:43:53.501Z,18.21
2018-07-20T06:46:22.904Z,18.30
2018-07-20T06:48:52.353Z,18.36
2018-07-20T06:51:22.526Z,18.41
2018-07-20T06:53:51.965Z,18.48
2018-07-20T06:56:21.536Z,18.54
2018-07-20T06:58:50.949Z,18.61
2018-07-20T07:01:20.379Z,18.66
2018-07-20T07:03:49.791Z,18.73
2018-07-20T07:06:19.227Z,18.78
2018-07-20T07:08:48.605Z,18.87
2018-07-20T07:11:18.089Z,18.94
2018-07-20T07:13:47.549Z,19.00
2018-07-20T07:16:16.962Z,19.06
2018-07-20T07:18:46.482Z,19.16
2018-07-20T07:21:15.973Z,19.23
2018-07-20T07:23:45.121Z,19.32
2018-07-20T07:26:14.545Z,19.37
2018-07-20T07:28:43.945Z,19.44
2018-07-20T07:31:13.391Z,19.51
2018-07-20T07:33:42.815Z,19.59
2018-07-20T07:36:12.233Z,19.67
2018-07-20T07:38:41.664Z,19.74
2018-07-20T07:41:11.103Z,19.82
2018-07-20T07:43:40.579Z,19.90
2018-07-20T07:46:09.983Z,19.96
2018-07-20T07:48:39.393Z,20.03
2018-07-20T07:51:08.862Z,20.09
2018-07-20T07:53:38.375Z,20.16
2018-07-20T07:56:07.879Z,20.24
2018-07-20T07:58:37.330Z,20.30
2018-07-20T08:01:06.530Z,20.38
2018-07-20T08:03:36.074Z,20.43
2018-07-20T08:06:05.692Z,20.53
2018-07-20T08:08:35.117Z,20.59
2018-07-20T08:11:04.618Z,20.69
2018-07-20T08:13:34.087Z,20.72
2018-07-20T08:16:03.576Z,20.78
2018-07-20T08:18:32.976Z,20.85
2018-07-20T08:21:02.132Z,20.92
2018-07-20T08:23:31.551Z,21.02
2018-07-20T08:26:01.029Z,21.12
2018-07-20T08:28:30.561Z,21.17
2018-07-20T08:31:00.043Z,21.24
2018-07-20T08:33:29.433Z,21.30
2018-07-20T08:35:58.880Z,21.38
2018-07-20T08:38:28.376Z,21.44
2018-07-20T08:40:57.799Z,21.50
2018-07-20T08:43:27.273Z,21.55
2018-07-20T08:45:56.760Z,21.61
2018-07-20T08:48:26.340Z,21.65
2018-07-20T08:50:55.844Z,21.72
2018-07-20T08:53:25.291Z,21.79
2018-07-20T08:55:54.714Z,21.86
2018-07-20T08:58:24.163Z,21.93
2018-07-20T09:00:53.591Z,21.97
2018-07-20T09:03:23.112Z,22.04
2018-07-20T09:05:52.599Z,22.10
2018-07-20T09:08:22.064Z,22.16
2018-07-20T09:10:51.529Z,22.22
2018-07-20T09:13:20.956Z,22.24
2018-07-20T09:15:50.365Z,22.30
2018-07-20T09:18:19.831Z,22.35
2018-07-20T09:20:49.295Z,22.40
2018-07-20T09:23:18.679Z,22.54
2018-07-20T09:25:48.126Z,22.59
2018-07-20T09:28:18.073Z,22.66
2018-07-20T09:30:47.491Z,22.71
2018-07-20T09:33:16.950Z,22.78
2018-07-20T09:35:52.375Z,22.88
2018-07-20T09:38:21.834Z,23.00
2018-07-20T09:40:51.834Z,23.08
2018-07-20T09:43:21.994Z,23.11
2018-07-20T09:45:51.727Z,23.16
2018-07-20T09:48:21.167Z,23.19
2018-07-20T09:50:50.626Z,23.31
2018-07-20T09:53:20.072Z,23.43
2018-07-20T09:55:49.510Z,23.49
2018-07-20T09:58:18.998Z,23.55
2018-07-20T10:00:51.228Z,23.58
2018-07-20T10:03:21.876Z,23.69
2018-07-20T10:05:51.283Z,23.73
2018-07-20T10:08:21.085Z,23.76
2018-07-20T10:10:50.625Z,23.79
2018-07-20T10:13:19.777Z,23.86
2018-07-20T10:15:49.285Z,23.92
2018-07-20T10:18:18.714Z,24.02
2018-07-20T10:20:48.159Z,24.06
2018-07-20T10:23:17.550Z,24.16
2018-07-20T10:25:47.039Z,24.43
2018-07-20T10:28:16.486Z,24.47
2018-07-20T10:30:45.980Z,24.53
2018-07-20T10:33:15.412Z,24.61
2018-07-20T10:35:44.855Z,24.82
2018-07-20T10:38:14.017Z,24.95
2018-07-20T10:40:43.475Z,25.20
2018-07-20T10:43:12.884Z,25.31
2018-07-20T10:45:42.363Z,25.45
2018-07-20T10:48:11.763Z,25.51
2018-07-20T10:50:41.271Z,25.60
2018-07-20T10:53:10.732Z,25.68
2018-07-20T10:55:40.173Z,25.74
2018-07-20T10:58:09.616Z,25.76
2018-07-20T11:00:39.131Z,25.81
2018-07-20T11:03:08.586Z,25.84
2018-07-20T11:05:38.019Z,25.94
2018-07-20T11:08:07.156Z,26.07
2018-07-20T11:10:36.705Z,26.08
2018-07-20T11:13:06.272Z,26.06
2018-07-20T11:15:35.704Z,26.07
2018-07-20T11:18:05.268Z,26.06
2018-07-20T11:20:34.694Z,26.07
2018-07-20T11:23:04.179Z,26.08
2018-07-20T11:25:33.611Z,26.09
2018-07-20T11:28:03.120Z,26.06
2018-07-20T11:30:32.651Z,26.10
2018-07-20T11:33:02.140Z,26.15
2018-07-20T11:35:31.612Z,26.13
2018-07-20T11:38:01.050Z,26.14
2018-07-20T11:40:30.494Z,26.13
2018-07-20T11:42:59.907Z,26.11
2018-07-20T11:45:29.343Z,26.12
2018-07-20T11:47:59.002Z,26.16
2018-07-20T11:50:28.550Z,26.22
2018-07-20T11:52:57.949Z,26.29
2018-07-20T11:55:27.353Z,26.35
2018-07-20T11:57:56.798Z,26.60
2018-07-20T12:00:26.221Z,26.60
2018-07-20T12:02:55.740Z,26.59
2018-07-20T12:05:24.969Z,26.61
2018-07-20T12:07:54.512Z,26.67
2018-07-20T12:10:24.045Z,26.74
2018-07-20T12:12:53.507Z,26.87
2018-07-20T12:15:22.948Z,26.91
2018-07-20T12:17:52.442Z,26.94
2018-07-20T12:20:21.965Z,26.93
2018-07-20T12:22:51.407Z,26.98
2018-07-20T12:25:20.807Z,27.15
2018-07-20T12:27:50.250Z,27.16
2018-07-20T12:30:19.660Z,27.22
2018-07-20T12:32:49.072Z,27.33
2018-07-20T12:35:18.514Z,27.44
2018-07-20T12:37:47.941Z,27.55
2018-07-20T12:40:17.379Z,27.63
2018-07-20T12:42:46.801Z,27.71
2018-07-20T12:45:16.276Z,27.75
2018-07-20T12:47:45.765Z,27.84
2018-07-20T12:50:15.249Z,27.93
2018-07-20T12:52:44.697Z,27.99
2018-07-20T12:55:14.167Z,28.04
2018-07-20T12:57:43.613Z,28.06
2018-07-20T13:00:13.221Z,28.05
2018-07-20T13:02:42.746Z,28.03
2018-07-20T13:05:12.228Z,28.03
2018-07-20T13:07:41.763Z,28.09
2018-07-20T13:10:11.218Z,28.11
2018-07-20T13:12:40.847Z,28.06
2018-07-20T13:15:10.391Z,28.04
2018-07-20T13:17:39.872Z,28.03
2018-07-20T13:20:09.433Z,27.63
2018-07-20T13:22:38.930Z,27.67
2018-07-20T13:25:08.449Z,27.72
2018-07-20T13:27:37.864Z,27.65
2018-07-20T13:30:08.849Z,27.75
2018-07-20T13:32:38.391Z,27.87
2018-07-20T13:35:08.272Z,27.96
2018-07-20T13:37:37.868Z,28.11
2018-07-20T13:40:08.068Z,28.27
2018-07-20T13:42:37.702Z,28.36
2018-07-20T13:45:08.301Z,28.52
2018-07-20T13:47:37.957Z,28.58
2018-07-20T13:50:09.415Z,28.61
2018-07-20T13:52:39.051Z,28.61
2018-07-20T13:55:08.472Z,28.61
2018-07-20T13:57:37.935Z,28.65
2018-07-20T14:00:08.346Z,28.67
2018-07-20T14:02:37.797Z,28.57
2018-07-20T14:05:07.329Z,28.53
2018-07-20T14:07:36.828Z,28.48
2018-07-20T14:10:07.392Z,28.45
2018-07-20T14:12:36.796Z,28.42
2018-07-20T14:15:07.074Z,28.38
2018-07-20T14:17:36.698Z,28.30
2018-07-20T14:20:06.500Z,28.26
2018-07-20T14:22:35.937Z,28.19
2018-07-20T14:25:05.561Z,28.15
2018-07-20T14:27:35.044Z,28.10
2018-07-20T14:30:05.310Z,28.05
2018-07-20T14:32:34.789Z,27.96
2018-07-20T14:35:04.461Z,27.90
2018-07-20T14:37:34.005Z,27.85
2018-07-20T14:40:03.485Z,27.80
2018-07-20T14:42:32.902Z,27.71
2018-07-20T14:45:02.360Z,27.66
2018-07-20T14:47:31.832Z,27.56
2018-07-20T14:50:01.188Z,27.52
2018-07-20T14:52:30.637Z,27.48
2018-07-20T14:55:00.197Z,27.45
2018-07-20T14:57:29.699Z,27.40
2018-07-20T14:59:59.240Z,27.39
2018-07-20T15:02:28.799Z,27.33
2018-07-20T15:04:58.282Z,27.18
2018-07-20T15:07:27.686Z,27.22
2018-07-20T15:09:57.140Z,27.25
2018-07-20T15:12:26.574Z,27.25
2018-07-20T15:14:56.160Z,27.18
2018-07-20T15:17:25.628Z,27.25
2018-07-20T15:19:55.100Z,27.30
2018-07-20T15:22:24.532Z,27.47
2018-07-20T15:24:53.985Z,27.61
2018-07-20T15:27:23.623Z,27.75
2018-07-20T15:29:53.059Z,27.87
2018-07-20T15:32:22.484Z,27.99
2018-07-20T15:34:51.713Z,28.11
2018-07-20T15:37:21.113Z,28.14
2018-07-20T15:39:50.580Z,28.15
2018-07-20T15:42:20.125Z,28.16
2018-07-20T15:44:50.096Z,28.10
2018-07-20T15:47:19.578Z,28.06
2018-07-20T15:49:48.971Z,28.02
2018-07-20T15:54:48.029Z,27.97
2018-07-20T15:57:17.634Z,27.91
2018-07-20T15:59:47.217Z,27.88
2018-07-20T16:02:16.597Z,27.88
2018-07-20T16:04:46.144Z,27.90
2018-07-20T16:07:15.655Z,27.92
2018-07-20T16:09:45.145Z,27.92
2018-07-20T16:12:14.614Z,27.95
2018-07-20T16:14:44.066Z,27.92
2018-07-20T16:17:13.606Z,27.94
2018-07-20T16:19:43.110Z,27.97
2018-07-20T16:22:12.511Z,27.99
2018-07-20T16:24:41.973Z,28.03
2018-07-20T16:27:11.388Z,28.05
2018-07-20T16:29:40.809Z,28.12
2018-07-20T16:32:10.261Z,28.16
2018-07-20T16:34:40.692Z,28.19
2018-07-20T16:37:10.119Z,28.22
2018-07-20T16:39:39.518Z,28.23
2018-07-20T16:42:09.433Z,28.26
2018-07-20T16:44:38.847Z,28.32
2018-07-20T16:47:08.337Z,28.33
2018-07-20T16:49:37.933Z,28.41
2018-07-20T16:52:07.330Z,28.47
2018-07-20T16:54:36.807Z,28.58
2018-07-20T16:57:06.271Z,28.66
2018-07-20T16:59:35.705Z,28.71
2018-07-20T17:02:05.420Z,28.86
2018-07-20T17:04:34.804Z,28.79
2018-07-20T17:07:04.303Z,28.83
2018-07-20T17:09:33.851Z,28.98
2018-07-20T17:12:03.511Z,28.96
2018-07-20T17:14:32.910Z,29.00
2018-07-20T17:17:02.423Z,29.09
2018-07-20T17:19:31.905Z,29.11
2018-07-20T17:22:01.315Z,29.06
2018-07-20T17:24:30.749Z,28.96
2018-07-20T17:27:00.251Z,28.87
2018-07-20T17:29:29.770Z,28.72
2018-07-20T17:31:59.185Z,28.57
2018-07-20T17:34:28.982Z,28.40
2018-07-20T17:36:58.411Z,28.25
2018-07-20T17:39:27.882Z,28.13
2018-07-20T17:41:57.325Z,28.03
2018-07-20T17:44:26.824Z,27.90
2018-07-20T17:46:56.231Z,27.76
2018-07-20T17:49:25.826Z,27.59
2018-07-20T17:51:55.316Z,27.47
2018-07-20T17:54:24.814Z,27.39
2018-07-20T17:56:54.312Z,27.29
2018-07-20T17:59:23.881Z,27.22
2018-07-20T18:01:53.440Z,27.13
2018-07-20T18:04:22.546Z,27.05
2018-07-20T18:06:52.052Z,27.00
2018-07-20T18:09:21.756Z,26.86
2018-07-20T18:11:51.211Z,26.86
2018-07-20T18:14:20.663Z,26.83
2018-07-20T18:16:50.305Z,26.81
2018-07-20T18:19:19.782Z,26.79
2018-07-20T18:21:49.256Z,26.79
2018-07-20T18:24:18.436Z,26.70
2018-07-20T18:26:47.958Z,26.65
2018-07-20T18:29:17.510Z,26.52
2018-07-20T18:31:47.026Z,26.47
2018-07-20T18:34:16.558Z,26.45
2018-07-20T18:36:46.173Z,26.40
2018-07-20T18:39:15.681Z,26.38
2018-07-20T18:41:45.192Z,26.37
2018-07-20T18:44:14.674Z,26.34
2018-07-20T18:46:44.162Z,26.29
2018-07-20T18:49:13.560Z,26.22
2018-07-20T18:51:43.006Z,26.17
2018-07-20T18:54:12.579Z,26.14
2018-07-20T18:56:43.086Z,26.09
2018-07-20T18:59:12.671Z,26.04
2018-07-20T19:01:42.217Z,26.03
2018-07-20T19:04:11.749Z,26.00
2018-07-20T19:06:41.261Z,25.95
2018-07-20T19:09:11.999Z,25.90
2018-07-20T19:11:41.673Z,25.86
2018-07-20T19:14:11.115Z,25.81
2018-07-20T19:16:40.562Z,25.77
2018-07-20T19:19:10.044Z,25.71
2018-07-20T19:21:39.477Z,25.62
2018-07-20T19:24:09.081Z,25.56
2018-07-20T19:26:38.199Z,25.50
2018-07-20T19:29:07.765Z,25.44
2018-07-20T19:31:37.249Z,25.35
2018-07-20T19:34:06.767Z,25.29
2018-07-20T19:36:36.238Z,25.21
2018-07-20T19:39:09.415Z,25.13
2018-07-20T19:41:39.015Z,24.96
2018-07-20T19:44:08.499Z,24.90
2018-07-20T19:46:37.987Z,24.80
2018-07-20T19:49:07.463Z,24.79
2018-07-20T19:51:36.848Z,24.73
2018-07-20T19:54:05.994Z,24.67
2018-07-20T19:56:35.416Z,24.57
2018-07-20T19:59:04.984Z,24.53
2018-07-20T20:01:34.460Z,24.42
2018-07-20T20:04:04.052Z,24.32
2018-07-20T20:06:33.264Z,24.32
2018-07-20T20:09:02.673Z,24.28
2018-07-20T20:11:32.099Z,24.22
2018-07-20T20:14:01.510Z,24.17
2018-07-20T20:16:30.971Z,24.03
2018-07-20T20:19:00.494Z,23.89
2018-07-20T20:21:29.970Z,23.85
2018-07-20T20:23:59.368Z,23.83
2018-07-20T20:26:28.974Z,23.79
2018-07-20T20:28:58.395Z,23.76
2018-07-20T20:31:27.854Z,23.68
2018-07-20T20:33:57.315Z,23.63
2018-07-20T20:36:26.718Z,23.59
2018-07-20T20:38:56.733Z,23.51
2018-07-20T20:41:26.231Z,23.47
2018-07-20T20:43:56.324Z,23.46
2018-07-20T20:46:25.816Z,23.42
2018-07-20T20:48:55.311Z,23.38
2018-07-20T20:51:24.799Z,23.38
2018-07-20T20:53:54.431Z,23.34
2018-07-20T20:56:23.853Z,23.30
2018-07-20T20:58:53.315Z,23.24
2018-07-20T21:01:22.714Z,23.21
2018-07-20T21:03:52.147Z,23.19
2018-07-20T21:06:21.736Z,23.14
2018-07-20T21:08:51.183Z,23.06
2018-07-20T21:11:20.649Z,23.04
2018-07-20T21:13:49.778Z,23.00
2018-07-20T21:16:19.320Z,22.95
2018-07-20T21:18:48.507Z,22.93
2018-07-20T21:21:17.939Z,22.82
2018-07-20T21:23:47.132Z,22.85
2018-07-20T21:26:17.103Z,22.84
2018-07-20T21:28:46.533Z,22.79
2018-07-20T21:31:16.010Z,22.74
2018-07-20T21:33:45.493Z,22.72
2018-07-20T21:36:15.098Z,22.68
2018-07-20T21:38:44.549Z,22.65
2018-07-20T21:41:14.030Z,22.58
2018-07-20T21:43:43.460Z,22.56
2018-07-20T21:46:12.936Z,22.52
2018-07-20T21:48:42.391Z,22.46
2018-07-20T21:51:11.818Z,22.44
2018-07-20T21:53:41.271Z,22.42
2018-07-20T21:58:53.148Z,22.35
2018-07-20T22:01:22.775Z,22.33
2018-07-20T22:03:52.248Z,22.20
2018-07-20T22:06:21.695Z,22.16
2018-07-20T22:08:51.228Z,22.18
2018-07-20T22:11:20.665Z,22.13
2018-07-20T22:13:50.111Z,22.12
2018-07-20T22:16:19.810Z,22.11
2018-07-20T22:18:49.200Z,21.99
2018-07-20T22:21:18.657Z,21.95
2018-07-20T22:23:48.056Z,21.93
2018-07-20T22:26:17.586Z,21.89
2018-07-20T22:28:46.705Z,21.85
2018-07-20T22:31:16.130Z,21.90
2018-07-20T22:33:45.588Z,21.87
2018-07-20T22:36:15.009Z,21.79
2018-07-20T22:38:44.964Z,21.73
2018-07-20T22:41:14.970Z,21.70
2018-07-20T22:43:44.327Z,21.67
2018-07-20T22:46:13.778Z,21.67
2018-07-20T22:48:43.232Z,21.69
2018-07-20T22:51:12.688Z,21.66
2018-07-20T22:53:42.647Z,21.68
2018-07-20T22:56:12.122Z,21.64
2018-07-20T22:58:41.541Z,21.62
2018-07-20T23:01:11.446Z,21.62
2018-07-20T23:03:41.433Z,21.63
2018-07-20T23:06:10.855Z,21.59
2018-07-20T23:08:40.281Z,21.57
2018-07-20T23:11:09.713Z,21.51
2018-07-20T23:13:39.273Z,21.46
2018-07-20T23:16:08.740Z,21.37
2018-07-20T23:18:38.166Z,21.32
2018-07-20T23:21:07.299Z,21.34
2018-07-20T23:23:36.489Z,21.32
2018-07-20T23:26:06.024Z,21.34
2018-07-20T23:28:35.461Z,21.32
2018-07-20T23:31:05.243Z,21.29
2018-07-20T23:33:34.696Z,21.21
2018-07-20T23:36:04.212Z,21.21
2018-07-20T23:38:33.825Z,21.21
2018-07-20T23:41:03.311Z,21.21
2018-07-20T23:43:32.690Z,21.16
2018-07-20T23:46:02.123Z,21.13
2018-07-20T23:48:31.536Z,21.10
2018-07-20T23:51:01.117Z,21.09
2018-07-20T23:53:30.612Z,21.04
2018-07-20T23:56:00.016Z,21.01
2018-07-20T23:58:29.469Z,20.97
